Time;durP1;ratioP1;P1;durP2;ratioP2;P2;SDS_P1;SDS_P2;PMS_P1;PMS_P2;Temp;Humidity;BMP_temperature;BMP_pressure;BME280_temperature;BME280_humidity;BME280_pressure;Samples;Min_cycle;Max_cycle;Signal;HPM_P1;HPM_P2
2023/04/07 00:02:19;;;;;;;29.05;24.27;;;8.00;86.70;;;;;;5017791;28;20042;-79
2023/04/07 00:04:44;;;;;;;29.17;23.38;;;8.00;86.70;;;;;;4985259;28;20033;-79
2023/04/07 00:07:10;;;;;;;30.77;24.92;;;8.10;86.90;;;;;;4985080;28;20091;-79
2023/04/07 00:09:36;;;;;;;30.45;25.25;;;8.00;86.90;;;;;;5001584;28;20033;-79
2023/04/07 00:12:01;;;;;;;28.63;24.27;;;8.00;87.00;;;;;;4969151;28;20396;-79
2023/04/07 00:14:28;;;;;;;29.00;24.13;;;8.00;87.00;;;;;;5014080;28;20148;-79
2023/04/07 00:16:53;;;;;;;30.10;25.17;;;8.00;87.00;;;;;;4998028;28;20503;-79
2023/04/07 00:19:19;;;;;;;29.00;24.90;;;8.00;87.20;;;;;;4965072;28;20129;-79
2023/04/07 00:21:45;;;;;;;30.25;24.83;;;8.00;87.30;;;;;;4981725;28;20050;-79
2023/04/07 00:24:11;;;;;;;32.53;26.70;;;8.00;87.30;;;;;;5013896;28;20131;-80
2023/04/07 00:26:37;;;;;;;30.73;25.67;;;8.00;87.30;;;;;;4997689;28;20128;-79
2023/04/07 00:29:02;;;;;;;30.65;25.83;;;8.00;87.40;;;;;;4981826;28;20034;-79
2023/04/07 00:31:28;;;;;;;32.13;26.00;;;8.10;87.40;;;;;;4981504;28;20073;-79
2023/04/07 00:33:56;;;;;;;31.27;26.05;;;8.00;87.40;;;;;;5013909;28;20378;-79
2023/04/07 00:36:22;;;;;;;32.88;26.52;;;8.00;87.50;;;;;;4966123;28;20393;-79
2023/04/07 00:38:48;;;;;;;32.05;26.02;;;8.00;87.50;;;;;;4981248;28;20046;-79
2023/04/07 00:41:13;;;;;;;34.92;28.35;;;8.00;87.60;;;;;;4997414;28;20042;-79
2023/04/07 00:43:39;;;;;;;34.72;26.65;;;8.00;87.60;;;;;;5013628;28;20038;-79
2023/04/07 00:46:05;;;;;;;34.47;26.40;;;8.00;87.60;;;;;;4997593;28;20081;-79
2023/04/07 00:48:31;;;;;;;36.10;27.73;;;8.10;87.70;;;;;;5013633;28;20512;-79
2023/04/07 00:50:56;;;;;;;35.80;28.20;;;8.10;87.70;;;;;;4997183;28;20046;-79
2023/04/07 00:53:22;;;;;;;34.85;28.45;;;8.10;87.60;;;;;;4980996;28;20049;-79
2023/04/07 00:55:48;;;;;;;34.45;27.77;;;8.10;87.70;;;;;;4964966;28;20045;-79
2023/04/07 00:58:14;;;;;;;36.08;28.23;;;8.10;87.70;;;;;;5013612;28;20057;-79
2023/04/07 01:00:51;;;;;;;34.33;27.85;;;8.10;87.70;;;;;;4996814;28;20042;-79
2023/04/07 01:03:27;;;;;;;33.33;27.40;;;8.10;87.90;;;;;;5013526;28;20038;-79
2023/04/07 01:06:00;;;;;;;33.28;28.27;;;8.10;87.90;;;;;;4997212;28;20038;-79
2023/04/07 01:08:39;;;;;;;32.72;26.63;;;8.10;87.80;;;;;;5013348;28;20042;-79
2023/04/07 01:11:12;;;;;;;35.97;27.83;;;8.10;87.90;;;;;;5013113;28;20048;-79
2023/04/07 01:13:44;;;;;;;34.70;28.35;;;8.10;87.90;;;;;;5013212;28;20058;-79
2023/04/07 01:16:15;;;;;;;33.28;26.90;;;8.10;87.90;;;;;;4996858;28;20042;-79
2023/04/07 01:18:43;;;;;;;31.83;25.98;;;8.10;87.90;;;;;;4996653;28;20037;-79
2023/04/07 01:21:12;;;;;;;34.75;28.48;;;8.10;87.90;;;;;;4996669;28;20046;-79
2023/04/07 01:23:49;;;;;;;34.25;27.35;;;8.20;87.90;;;;;;4996688;28;20121;-79
2023/04/07 01:26:29;;;;;;;33.65;28.02;;;8.20;88.00;;;;;;5013428;28;20056;-79
2023/04/07 01:29:22;;;;;;;33.47;27.38;;;8.20;88.00;;;;;;5012636;28;20088;-79
2023/04/07 01:31:49;;;;;;;31.30;25.42;;;8.20;88.00;;;;;;4996421;28;20045;-79
2023/04/07 01:34:17;;;;;;;30.65;25.92;;;8.20;87.90;;;;;;4996560;28;20048;-79
2023/04/07 01:36:44;;;;;;;26.90;22.60;;;8.20;88.00;;;;;;4996469;28;20049;-79
2023/04/07 01:39:11;;;;;;;25.00;21.85;;;8.20;88.00;;;;;;5012693;28;20057;-79
2023/04/07 01:41:38;;;;;;;32.42;27.60;;;8.20;88.10;;;;;;5012713;28;20133;-79
2023/04/07 01:44:06;;;;;;;35.13;28.30;;;8.20;88.10;;;;;;4996422;28;20042;-79
2023/04/07 01:46:33;;;;;;;32.05;25.83;;;8.30;88.10;;;;;;4996111;28;20045;-79
2023/04/07 01:48:59;;;;;;;32.67;27.48;;;8.30;88.00;;;;;;4996575;28;20401;-79
2023/04/07 01:51:26;;;;;;;30.75;25.48;;;8.30;87.90;;;;;;5012605;28;20046;-79
2023/04/07 01:53:52;;;;;;;31.75;27.33;;;8.30;87.90;;;;;;5012834;28;20472;-80
2023/04/07 01:56:17;;;;;;;33.03;27.48;;;8.30;87.80;;;;;;4995637;28;20080;-80
2023/04/07 01:58:43;;;;;;;30.80;26.83;;;8.30;87.80;;;;;;4963914;28;20050;-80
2023/04/07 02:01:09;;;;;;;33.03;27.30;;;8.30;87.80;;;;;;4995982;28;20038;-80
2023/04/07 02:03:41;;;;;;;32.08;26.10;;;8.30;87.80;;;;;;4995778;28;20065;-80
2023/04/07 02:06:08;;;;;;;32.58;26.52;;;8.30;87.80;;;;;;5025669;28;20053;-80
2023/04/07 02:08:38;;;;;;;31.02;26.05;;;8.30;87.80;;;;;;5009110;28;20046;-80
2023/04/07 02:11:06;;;;;;;34.10;27.15;;;8.30;87.80;;;;;;4992871;28;20038;-80
2023/04/07 02:13:34;;;;;;;36.40;28.50;;;8.30;87.80;;;;;;5003643;28;20057;-80
2023/04/07 02:16:01;;;;;;;32.55;26.92;;;8.30;87.80;;;;;;5012532;28;20061;-80
2023/04/07 02:18:29;;;;;;;33.25;27.52;;;8.30;87.80;;;;;;4996283;28;20049;-80
2023/04/07 02:20:55;;;;;;;31.83;27.90;;;8.30;87.80;;;;;;4995897;28;20046;-80
2023/04/07 02:23:21;;;;;;;33.25;27.15;;;8.30;87.90;;;;;;5012368;28;20042;-80
2023/04/07 02:25:46;;;;;;;30.95;25.27;;;8.30;87.90;;;;;;4996082;28;20029;-80
2023/04/07 02:28:12;;;;;;;34.67;28.02;;;8.30;87.90;;;;;;4979678;28;20045;-80
2023/04/07 02:30:39;;;;;;;33.50;27.63;;;8.40;88.40;;;;;;4995897;28;20053;-80
2023/04/07 02:33:04;;;;;;;32.45;26.92;;;8.30;88.00;;;;;;4979499;28;20605;-80
2023/04/07 02:35:30;;;;;;;33.78;27.27;;;8.30;88.00;;;;;;4963827;28;20050;-80
2023/04/07 02:37:56;;;;;;;36.78;28.20;;;8.30;88.00;;;;;;4996082;28;20053;-80
2023/04/07 02:40:21;;;;;;;34.05;27.70;;;8.40;88.10;;;;;;4995732;28;20049;-80
2023/04/07 02:42:47;;;;;;;33.40;27.55;;;8.40;88.10;;;;;;4979903;28;20034;-80
2023/04/07 02:45:13;;;;;;;36.50;27.77;;;8.40;88.10;;;;;;4979820;28;20091;-80
2023/04/07 02:47:39;;;;;;;39.45;29.95;;;8.40;88.20;;;;;;4979624;28;20477;-80
2023/04/07 02:50:05;;;;;;;31.65;26.98;;;8.40;88.20;;;;;;4996018;28;20034;-80
2023/04/07 02:52:31;;;;;;;34.58;27.95;;;8.40;88.00;;;;;;4979435;28;20129;-80
2023/04/07 02:54:57;;;;;;;35.13;27.77;;;8.40;88.30;;;;;;4995637;28;20125;-80
2023/04/07 02:57:22;;;;;;;33.25;27.45;;;8.40;88.30;;;;;;5012311;28;20042;-80
2023/04/07 02:59:48;;;;;;;35.13;27.63;;;8.40;88.20;;;;;;4995634;28;20545;-80
2023/04/07 03:02:14;;;;;;;36.55;28.75;;;8.40;88.20;;;;;;4995720;28;20034;-80
2023/04/07 03:04:40;;;;;;;34.28;28.52;;;8.40;88.20;;;;;;4995946;28;20038;-80
2023/04/07 03:07:06;;;;;;;35.83;28.80;;;8.40;88.30;;;;;;4981017;28;20049;-79
2023/04/07 03:09:32;;;;;;;33.45;26.77;;;8.40;88.30;;;;;;5015756;28;20038;-80
2023/04/07 03:11:57;;;;;;;34.53;28.23;;;8.40;88.30;;;;;;4999511;28;20492;-80
2023/04/07 03:14:23;;;;;;;34.78;28.00;;;8.40;88.30;;;;;;4982488;28;20062;-79
2023/04/07 03:16:49;;;;;;;34.85;27.45;;;8.40;88.40;;;;;;4982819;28;20208;-80
2023/04/07 03:19:15;;;;;;;33.45;27.98;;;8.40;88.40;;;;;;4983254;28;20386;-80
2023/04/07 03:21:41;;;;;;;36.10;28.52;;;8.40;88.40;;;;;;4998913;28;20045;-80
2023/04/07 03:24:07;;;;;;;35.28;27.58;;;8.40;88.50;;;;;;4966453;28;20034;-80
2023/04/07 03:26:33;;;;;;;28.38;24.20;;;8.40;88.50;;;;;;4998955;28;20053;-80
2023/04/07 03:28:59;;;;;;;30.48;23.90;;;8.40;88.50;;;;;;4998841;28;20104;-80
2023/04/07 03:31:25;;;;;;;28.25;24.00;;;8.50;88.60;;;;;;4998830;28;20073;-80
2023/04/07 03:33:50;;;;;;;27.60;23.27;;;8.50;88.60;;;;;;4982635;28;20045;-80
2023/04/07 03:36:17;;;;;;;29.33;24.13;;;8.50;88.60;;;;;;4998913;28;20041;-80
2023/04/07 03:38:43;;;;;;;27.65;22.83;;;8.50;88.60;;;;;;4982425;28;20078;-80
2023/04/07 03:41:09;;;;;;;28.52;23.95;;;8.50;88.50;;;;;;4998593;28;20492;-80
2023/04/07 03:43:35;;;;;;;25.15;21.60;;;8.50;88.50;;;;;;4998711;28;20033;-80
2023/04/07 03:46:01;;;;;;;28.50;24.80;;;8.50;88.40;;;;;;4998633;28;20049;-80
2023/04/07 03:48:26;;;;;;;28.48;24.98;;;8.60;88.50;;;;;;4998493;28;20038;-80
2023/04/07 03:50:52;;;;;;;26.50;23.17;;;8.60;88.40;;;;;;5014695;28;20107;-80
2023/04/07 03:53:18;;;;;;;28.27;23.33;;;8.60;88.30;;;;;;4998380;28;20420;-80
2023/04/07 03:55:44;;;;;;;26.50;23.52;;;8.60;88.20;;;;;;4998189;28;20100;-80
2023/04/07 03:58:10;;;;;;;28.38;24.13;;;8.60;88.10;;;;;;4982235;28;20045;-80
2023/04/07 04:00:36;;;;;;;29.33;25.25;;;8.60;88.10;;;;;;4998002;28;20076;-80
2023/04/07 04:03:02;;;;;;;28.17;24.85;;;8.70;88.00;;;;;;4998213;28;20037;-80
2023/04/07 04:05:28;;;;;;;27.80;24.02;;;8.60;88.00;;;;;;4998234;28;20046;-80
2023/04/07 04:07:54;;;;;;;28.88;25.02;;;8.70;87.90;;;;;;4982129;28;20041;-81
2023/04/07 04:10:20;;;;;;;29.83;25.13;;;8.70;87.90;;;;;;4998256;28;20045;-81
2023/04/07 04:12:47;;;;;;;28.92;24.52;;;8.70;87.90;;;;;;4997838;28;20065;-81
2023/04/07 04:15:14;;;;;;;29.65;24.35;;;8.70;87.90;;;;;;4997710;28;20134;-81
2023/04/07 04:17:40;;;;;;;27.67;23.70;;;8.70;87.80;;;;;;4997943;28;20037;-81
2023/04/07 04:20:07;;;;;;;29.42;25.83;;;8.70;87.90;;;;;;5013633;28;20034;-81
2023/04/07 04:22:33;;;;;;;29.60;24.48;;;8.70;87.90;;;;;;4965811;28;20448;-81
2023/04/07 04:24:59;;;;;;;29.25;25.02;;;8.70;87.90;;;;;;4981657;28;20042;-81
2023/04/07 04:27:24;;;;;;;27.48;23.15;;;8.70;87.90;;;;;;5014322;28;20064;-81
2023/04/07 04:29:50;;;;;;;29.05;24.27;;;8.70;88.00;;;;;;4997721;28;20487;-81
2023/04/07 04:32:16;;;;;;;30.65;25.52;;;8.70;88.00;;;;;;4981442;28;20443;-81
2023/04/07 04:34:42;;;;;;;28.83;23.50;;;8.70;88.00;;;;;;5013991;28;20048;-81
2023/04/07 04:37:08;;;;;;;29.38;24.48;;;8.70;88.00;;;;;;5014164;28;20053;-81
2023/04/07 04:39:34;;;;;;;27.98;23.55;;;8.60;88.00;;;;;;4965105;28;20385;-81
2023/04/07 04:42:00;;;;;;;29.55;23.83;;;8.60;88.00;;;;;;4981101;28;20049;-81
2023/04/07 04:44:26;;;;;;;28.13;23.20;;;8.60;88.00;;;;;;5013870;28;20131;-81
2023/04/07 04:46:52;;;;;;;29.45;23.20;;;8.60;88.10;;;;;;5013605;28;20073;-81
2023/04/07 04:49:18;;;;;;;28.30;23.40;;;8.60;88.00;;;;;;4981003;28;20050;-81
2023/04/07 04:51:44;;;;;;;28.55;23.60;;;8.60;88.00;;;;;;4981155;28;20052;-81
2023/04/07 04:54:10;;;;;;;27.42;22.80;;;8.60;88.10;;;;;;4964985;28;20041;-82
2023/04/07 04:56:36;;;;;;;30.77;24.90;;;8.50;88.10;;;;;;4981055;28;20128;-86
2023/04/07 04:59:03;;;;;;;28.20;22.98;;;8.50;88.10;;;;;;4981063;28;20077;-79
2023/04/07 05:01:29;;;;;;;27.95;22.15;;;8.50;88.20;;;;;;5012818;28;20081;-80
2023/04/07 05:03:55;;;;;;;26.67;23.00;;;8.50;88.20;;;;;;4995946;28;20041;-79
2023/04/07 05:06:21;;;;;;;27.98;23.70;;;8.50;88.20;;;;;;4980257;28;20096;-80
2023/04/07 05:08:46;;;;;;;25.35;21.98;;;8.50;88.30;;;;;;5013337;28;20041;-80
2023/04/07 05:11:12;;;;;;;28.80;23.23;;;8.50;88.30;;;;;;5013548;28;20049;-80
2023/04/07 05:13:38;;;;;;;28.83;23.10;;;8.50;88.40;;;;;;4996584;28;20062;-80
2023/04/07 05:16:04;;;;;;;27.83;22.60;;;8.50;88.30;;;;;;4996861;28;20050;-80
2023/04/07 05:18:30;;;;;;;29.48;23.35;;;8.50;88.40;;;;;;4980907;28;20133;-80
2023/04/07 05:20:55;;;;;;;29.85;23.35;;;8.50;88.40;;;;;;5013089;28;20128;-80
2023/04/07 05:23:21;;;;;;;30.80;23.83;;;8.50;88.50;;;;;;4996744;28;20444;-80
2023/04/07 05:25:47;;;;;;;28.55;22.67;;;8.50;88.50;;;;;;4996792;28;20044;-80
2023/04/07 05:28:13;;;;;;;27.73;22.05;;;8.50;88.50;;;;;;4996456;28;20048;-80
2023/04/07 05:30:38;;;;;;;28.58;22.30;;;8.40;88.50;;;;;;4979600;28;20183;-80
2023/04/07 05:33:04;;;;;;;30.25;23.80;;;8.40;88.50;;;;;;4980203;28;20477;-80
2023/04/07 05:35:30;;;;;;;29.15;23.42;;;8.40;88.60;;;;;;4980554;28;20045;-80
2023/04/07 05:37:56;;;;;;;31.20;24.77;;;8.40;88.60;;;;;;4996368;28;20081;-80
2023/04/07 05:40:21;;;;;;;27.38;22.80;;;8.40;88.70;;;;;;4996406;28;20048;-80
2023/04/07 05:42:47;;;;;;;26.38;21.73;;;8.40;88.70;;;;;;4980458;28;20045;-80
2023/04/07 05:45:13;;;;;;;28.13;22.77;;;8.40;88.80;;;;;;5012654;28;20481;-80
2023/04/07 05:47:39;;;;;;;30.48;23.83;;;8.40;88.80;;;;;;4996265;28;20038;-80
2023/04/07 05:50:05;;;;;;;31.08;22.60;;;8.40;88.80;;;;;;4980060;28;20060;-80
2023/04/07 05:52:31;;;;;;;28.05;22.42;;;8.40;88.90;;;;;;5008657;28;20041;-80
2023/04/07 05:54:57;;;;;;;27.95;22.17;;;8.40;88.90;;;;;;4996298;28;20041;-80
2023/04/07 05:57:23;;;;;;;27.10;21.77;;;8.30;88.90;;;;;;5017194;28;20053;-80
2023/04/07 05:59:48;;;;;;;28.33;21.27;;;8.30;88.80;;;;;;4996149;28;20092;-80
2023/04/07 06:02:14;;;;;;;25.85;21.00;;;8.30;88.90;;;;;;4963968;28;20034;-79
2023/04/07 06:04:40;;;;;;;25.85;21.30;;;8.30;88.90;;;;;;5007891;28;20399;-79
2023/04/07 06:07:06;;;;;;;26.73;20.45;;;8.30;89.00;;;;;;4957899;28;21323;-79
2023/04/07 06:09:32;;;;;;;26.13;21.17;;;8.30;89.10;;;;;;5022141;28;20523;-79
2023/04/07 06:11:57;;;;;;;25.92;19.92;;;8.30;89.10;;;;;;4960155;28;20049;-79
2023/04/07 06:14:23;;;;;;;22.40;18.42;;;8.30;89.10;;;;;;4989443;28;20065;-80
2023/04/07 06:16:49;;;;;;;22.48;17.92;;;8.30;89.20;;;;;;5015634;28;20049;-79
2023/04/07 06:19:15;;;;;;;23.63;18.90;;;8.30;89.20;;;;;;5030882;28;20052;-80
2023/04/07 06:21:40;;;;;;;22.55;18.63;;;8.30;89.30;;;;;;4979700;28;20045;-80
2023/04/07 06:24:06;;;;;;;20.42;17.38;;;8.30;89.30;;;;;;4995837;28;20044;-80
2023/04/07 06:26:32;;;;;;;21.90;17.38;;;8.30;89.30;;;;;;4996228;28;20092;-80
2023/04/07 06:28:58;;;;;;;21.92;17.20;;;8.30;89.30;;;;;;4995943;28;20073;-80
2023/04/07 06:31:25;;;;;;;21.30;16.88;;;8.30;89.30;;;;;;5012264;28;20042;-80
2023/04/07 06:33:52;;;;;;;22.30;18.23;;;8.20;89.30;;;;;;4995686;28;20042;-79
2023/04/07 06:36:17;;;;;;;23.70;19.15;;;8.30;89.40;;;;;;4995613;28;20520;-79
2023/04/07 06:38:43;;;;;;;22.73;18.20;;;8.20;89.40;;;;;;4997759;28;20049;-78
2023/04/07 06:41:15;;;;;;;22.33;18.35;;;8.20;89.80;;;;;;5000058;28;20045;-78
2023/04/07 06:43:42;;;;;;;23.27;18.48;;;8.20;89.50;;;;;;5014515;28;20400;-80
2023/04/07 06:46:08;;;;;;;24.45;18.73;;;8.20;89.50;;;;;;5015663;28;20046;-80
2023/04/07 06:48:33;;;;;;;22.70;17.85;;;8.20;89.50;;;;;;4999566;28;20044;-80
2023/04/07 06:50:59;;;;;;;22.05;18.00;;;8.30;89.60;;;;;;4983440;28;20120;-80
2023/04/07 06:53:25;;;;;;;22.27;17.75;;;8.20;89.60;;;;;;4999127;28;20038;-79
2023/04/07 06:55:50;;;;;;;21.08;17.73;;;8.30;89.60;;;;;;4999928;28;20037;-79
2023/04/07 06:58:16;;;;;;;21.50;17.55;;;8.20;89.60;;;;;;4999292;28;20519;-80
2023/04/07 07:00:42;;;;;;;20.33;16.08;;;8.20;89.60;;;;;;4983129;28;20045;-80
2023/04/07 07:03:07;;;;;;;21.42;17.35;;;8.30;89.60;;;;;;4982929;28;20401;-80
2023/04/07 07:05:33;;;;;;;20.15;16.35;;;8.20;89.50;;;;;;4999139;28;20038;-80
2023/04/07 07:07:59;;;;;;;20.98;17.23;;;8.20;89.60;;;;;;4983136;28;20121;-80
2023/04/07 07:10:26;;;;;;;22.00;17.42;;;8.20;89.60;;;;;;4983202;28;20080;-80
2023/04/07 07:12:51;;;;;;;21.45;16.48;;;8.20;89.70;;;;;;4982771;28;20050;-80
2023/04/07 07:15:17;;;;;;;21.52;17.08;;;8.20;89.70;;;;;;4982605;28;20049;-80
2023/04/07 07:17:43;;;;;;;21.17;16.83;;;8.20;89.60;;;;;;4998963;28;20489;-80
2023/04/07 07:20:09;;;;;;;19.83;15.70;;;8.20;89.70;;;;;;5015306;28;20178;-80
2023/04/07 07:22:35;;;;;;;21.70;15.65;;;8.20;89.50;;;;;;4982616;28;20560;-80
2023/04/07 07:25:01;;;;;;;19.90;15.43;;;8.20;89.50;;;;;;4998975;28;20125;-80
2023/04/07 07:27:27;;;;;;;20.02;15.88;;;8.20;89.60;;;;;;4998915;28;20125;-80
2023/04/07 07:29:52;;;;;;;17.35;14.52;;;8.20;89.70;;;;;;4998837;28;20042;-80
2023/04/07 07:32:18;;;;;;;18.92;14.65;;;8.20;89.80;;;;;;4998896;28;20057;-80
2023/04/07 07:34:44;;;;;;;20.42;15.15;;;8.20;89.80;;;;;;4998633;28;20129;-80
2023/04/07 07:37:11;;;;;;;19.92;14.82;;;8.20;89.80;;;;;;4982204;28;20042;-80
2023/04/07 07:39:36;;;;;;;18.45;15.02;;;8.20;89.90;;;;;;4966742;28;20395;-80
2023/04/07 07:42:02;;;;;;;17.90;14.23;;;8.20;90.00;;;;;;4966116;28;20124;-79
2023/04/07 07:44:28;;;;;;;19.25;14.75;;;8.20;90.00;;;;;;4998752;28;20128;-81
2023/04/07 07:46:54;;;;;;;20.73;16.00;;;8.20;90.00;;;;;;4998706;28;20034;-81
2023/04/07 07:49:20;;;;;;;21.00;15.40;;;8.20;90.00;;;;;;4982423;28;20038;-81
2023/04/07 07:51:46;;;;;;;21.27;15.02;;;8.30;90.10;;;;;;4966259;28;20176;-81
2023/04/07 07:54:11;;;;;;;20.50;15.30;;;8.30;90.00;;;;;;4964725;28;20128;-80
2023/04/07 07:56:37;;;;;;;19.48;14.32;;;8.30;90.00;;;;;;4998190;28;20049;-81
2023/04/07 07:59:05;;;;;;;19.60;14.45;;;8.40;90.10;;;;;;4982109;28;20192;-81
2023/04/07 08:01:31;;;;;;;19.17;13.43;;;8.40;90.10;;;;;;5014362;28;20046;-81
2023/04/07 08:03:56;;;;;;;17.00;13.90;;;8.40;90.10;;;;;;4965768;28;20072;-81
2023/04/07 08:06:22;;;;;;;17.58;13.82;;;8.40;90.10;;;;;;4981809;28;20045;-81
2023/04/07 08:08:48;;;;;;;19.45;14.45;;;8.50;90.10;;;;;;4981560;28;20052;-81
2023/04/07 08:11:14;;;;;;;16.13;13.57;;;8.50;90.10;;;;;;4997867;28;20125;-81
2023/04/07 08:13:44;;;;;;;16.63;13.63;;;8.50;90.10;;;;;;4965537;28;20420;-81
2023/04/07 08:16:10;;;;;;;18.13;13.98;;;8.60;90.10;;;;;;4997976;28;20050;-81
2023/04/07 08:18:36;;;;;;;15.98;12.85;;;8.60;90.20;;;;;;4998048;28;20034;-81
2023/04/07 08:21:04;;;;;;;17.05;13.80;;;8.70;90.20;;;;;;4997503;28;20444;-81
2023/04/07 08:23:30;;;;;;;16.08;12.27;;;8.60;90.10;;;;;;4981193;28;20524;-81
2023/04/07 08:25:56;;;;;;;17.50;12.50;;;8.70;90.20;;;;;;5014274;28;20432;-81
2023/04/07 08:28:25;;;;;;;15.77;12.45;;;8.80;90.20;;;;;;4965371;28;20038;-81
2023/04/07 08:30:50;;;;;;;13.45;10.90;;;8.80;90.10;;;;;;5014257;28;20461;-81
2023/04/07 08:33:16;;;;;;;10.52;8.57;;;8.80;90.10;;;;;;4981275;28;20121;-81
2023/04/07 08:35:42;;;;;;;10.52;9.13;;;8.80;90.20;;;;;;5013739;28;20049;-81
2023/04/07 08:38:08;;;;;;;12.07;9.57;;;8.80;90.00;;;;;;5030424;28;20042;-81
2023/04/07 08:40:34;;;;;;;10.63;8.77;;;8.80;90.00;;;;;;4997702;28;20095;-81
2023/04/07 08:43:07;;;;;;;10.35;9.25;;;8.80;90.00;;;;;;4997500;28;20037;-81
2023/04/07 08:45:36;;;;;;;12.70;10.13;;;8.80;90.00;;;;;;5047119;28;20038;-80
2023/04/07 08:48:07;;;;;;;11.18;9.68;;;8.80;89.90;;;;;;5030285;28;20049;-81
2023/04/07 08:50:33;;;;;;;13.25;11.43;;;8.80;89.90;;;;;;5029595;28;20065;-80
2023/04/07 08:53:02;;;;;;;14.63;12.40;;;8.80;89.80;;;;;;4999810;28;20037;-81
2023/04/07 08:55:27;;;;;;;13.27;11.75;;;8.80;89.90;;;;;;4981084;28;20527;-81
2023/04/07 08:57:53;;;;;;;15.30;13.00;;;8.80;89.90;;;;;;4964857;28;20038;-81
2023/04/07 09:00:20;;;;;;;14.25;12.02;;;8.80;89.90;;;;;;4980518;28;20069;-81
2023/04/07 09:02:48;;;;;;;17.42;14.48;;;8.80;90.00;;;;;;5013021;28;20128;-81
2023/04/07 09:05:14;;;;;;;17.73;14.57;;;8.80;89.90;;;;;;4980985;28;20101;-81
2023/04/07 09:07:42;;;;;;;19.33;14.55;;;8.90;90.00;;;;;;5013284;28;20145;-81
2023/04/07 09:10:08;;;;;;;17.50;14.98;;;8.90;90.00;;;;;;4996525;28;20060;-81
2023/04/07 09:12:35;;;;;;;20.00;15.82;;;8.90;90.00;;;;;;5013376;28;20056;-83
2023/04/07 09:15:01;;;;;;;22.27;17.45;;;8.90;90.00;;;;;;4980364;28;20058;-80
2023/04/07 09:17:28;;;;;;;19.33;15.95;;;8.90;90.00;;;;;;5012938;28;20088;-79
2023/04/07 09:19:59;;;;;;;18.13;14.88;;;8.90;90.00;;;;;;4996230;28;20049;-81
2023/04/07 09:22:39;;;;;;;20.10;16.75;;;9.00;90.10;;;;;;4996108;28;20042;-80
2023/04/07 09:25:21;;;;;;;18.25;15.98;;;9.00;90.10;;;;;;4996358;28;20042;-80
2023/04/07 09:28:13;;;;;;;18.10;15.70;;;9.10;90.10;;;;;;4980231;28;20088;-80
2023/04/07 09:30:53;;;;;;;18.55;15.25;;;9.10;90.00;;;;;;4978847;28;20050;-80
2023/04/07 09:33:26;;;;;;;20.90;16.90;;;9.10;90.10;;;;;;4996433;28;20448;-80
2023/04/07 09:35:53;;;;;;;18.15;15.57;;;9.10;90.00;;;;;;4979928;28;20038;-80
2023/04/07 09:38:19;;;;;;;22.27;18.80;;;9.20;90.00;;;;;;4996267;28;20080;-80
2023/04/07 09:40:45;;;;;;;22.02;19.65;;;9.20;90.00;;;;;;4996486;28;20080;-80
2023/04/07 09:43:17;;;;;;;22.73;18.30;;;9.30;90.00;;;;;;4996280;28;20034;-80
2023/04/07 09:45:43;;;;;;;22.75;17.52;;;9.30;90.10;;;;;;4996397;28;20049;-80
2023/04/07 09:48:19;;;;;;;20.63;18.42;;;9.40;90.00;;;;;;4980323;28;20038;-80
2023/04/07 09:50:48;;;;;;;20.60;16.85;;;9.50;90.00;;;;;;4980290;28;20092;-80
2023/04/07 09:53:15;;;;;;;18.63;16.63;;;9.50;89.90;;;;;;5012571;28;20107;-80
2023/04/07 09:55:42;;;;;;;17.60;15.70;;;9.60;89.80;;;;;;5012306;28;20046;-80
2023/04/07 09:58:12;;;;;;;18.63;15.18;;;9.70;89.70;;;;;;4993079;28;20042;-80
2023/04/07 10:00:40;;;;;;;17.90;13.80;;;9.70;89.60;;;;;;4992821;28;20532;-80
2023/04/07 10:03:06;;;;;;;15.55;14.00;;;9.80;89.30;;;;;;4979718;28;20040;-80
2023/04/07 10:05:35;;;;;;;14.65;13.07;;;9.90;89.00;;;;;;4996454;28;20151;-80
2023/04/07 10:08:01;;;;;;;16.25;14.02;;;10.00;88.60;;;;;;5012414;28;20366;-79
2023/04/07 10:10:29;;;;;;;15.05;12.35;;;10.00;88.10;;;;;;4996088;28;20038;-79
2023/04/07 10:12:57;;;;;;;13.32;12.02;;;10.10;87.60;;;;;;4979775;28;20113;-79
2023/04/07 10:15:23;;;;;;;13.32;11.95;;;10.10;87.10;;;;;;4995411;28;20130;-79
2023/04/07 10:17:50;;;;;;;12.50;11.20;;;10.10;86.70;;;;;;4995532;28;20152;-79
2023/04/07 10:20:19;;;;;;;12.75;11.45;;;10.10;86.30;;;;;;4979883;28;20092;-79
2023/04/07 10:22:47;;;;;;;13.50;12.13;;;10.10;86.00;;;;;;4979984;28;20108;-79
2023/04/07 10:25:16;;;;;;;13.38;12.02;;;10.10;85.50;;;;;;5012428;28;20089;-79
2023/04/07 10:27:52;;;;;;;14.00;12.57;;;10.10;85.30;;;;;;5012350;28;20439;-79
2023/04/07 10:30:25;;;;;;;13.70;12.32;;;10.10;85.30;;;;;;4995855;28;20139;-79
2023/04/07 10:32:53;;;;;;;13.10;11.77;;;10.10;85.30;;;;;;4995709;28;20149;-79
2023/04/07 10:35:20;;;;;;;14.13;12.48;;;10.10;85.10;;;;;;5011982;28;20068;-79
2023/04/07 10:38:09;;;;;;;11.93;10.68;;;10.10;85.30;;;;;;5011773;28;20038;-79
2023/04/07 10:40:36;;;;;;;12.25;10.95;;;10.20;84.60;;;;;;4995480;28;20508;-79
2023/04/07 10:43:03;;;;;;;11.10;10.00;;;10.20;84.50;;;;;;4995534;28;20041;-79
2023/04/07 10:45:47;;;;;;;12.07;10.75;;;10.30;84.50;;;;;;4995217;28;20042;-79
2023/04/07 10:48:14;;;;;;;12.18;10.95;;;10.30;84.20;;;;;;5012151;28;20095;-79
2023/04/07 10:50:41;;;;;;;11.20;10.00;;;10.30;84.40;;;;;;4996231;28;20045;-79
2023/04/07 10:53:08;;;;;;;10.13;9.13;;;10.40;84.20;;;;;;4979716;28;20385;-79
2023/04/07 10:55:33;;;;;;;10.40;9.30;;;10.40;83.50;;;;;;4995441;28;20599;-79
2023/04/07 10:58:20;;;;;;;11.55;10.35;;;10.40;83.40;;;;;;4995508;28;20125;-79
2023/04/07 11:01:11;;;;;;;11.70;10.50;;;10.50;83.00;;;;;;5011575;28;20554;-79
2023/04/07 11:03:37;;;;;;;11.20;10.02;;;10.40;83.10;;;;;;5011557;28;20470;-78
2023/04/07 11:06:10;;;;;;;11.00;9.90;;;10.50;83.20;;;;;;5012105;28;20104;-79
2023/04/07 11:08:44;;;;;;;12.52;10.98;;;10.50;82.80;;;;;;4979306;28;20096;-79
2023/04/07 11:11:12;;;;;;;13.35;11.95;;;10.50;82.60;;;;;;4979144;28;20042;-79
2023/04/07 11:13:41;;;;;;;13.00;11.65;;;10.50;82.50;;;;;;4995491;28;20054;-79
2023/04/07 11:16:08;;;;;;;13.10;11.70;;;10.50;81.90;;;;;;5011671;28;20054;-79
2023/04/07 11:18:35;;;;;;;15.98;13.65;;;10.50;82.00;;;;;;4995199;28;20042;-79
2023/04/07 11:21:02;;;;;;;13.95;12.50;;;10.50;82.20;;;;;;5011489;28;20383;-79
2023/04/07 11:23:28;;;;;;;12.07;10.88;;;10.50;82.20;;;;;;5011229;28;20053;-79
2023/04/07 11:26:01;;;;;;;10.60;9.50;;;10.60;81.70;;;;;;4995271;28;20038;-79
2023/04/07 11:28:27;;;;;;;11.27;10.18;;;10.60;80.60;;;;;;5028902;28;20065;-79
2023/04/07 11:30:54;;;;;;;13.50;12.10;;;10.60;80.60;;;;;;4998695;28;20052;-79
2023/04/07 11:33:22;;;;;;;14.35;12.85;;;10.60;80.70;;;;;;4998363;28;20124;-79
2023/04/07 11:35:54;;;;;;;15.48;13.98;;;10.70;80.80;;;;;;4999048;28;20092;-79
2023/04/07 11:38:21;;;;;;;14.57;13.18;;;10.70;80.60;;;;;;4998485;28;20046;-79
2023/04/07 11:40:47;;;;;;;13.30;12.00;;;10.70;80.00;;;;;;5014950;28;20052;-79
2023/04/07 11:43:25;;;;;;;13.85;12.15;;;10.70;80.10;;;;;;5014680;28;20563;-79
2023/04/07 11:46:16;;;;;;;14.02;12.63;;;10.70;79.80;;;;;;4998760;28;20046;-79
2023/04/07 11:48:44;;;;;;;13.75;12.45;;;10.80;80.10;;;;;;5014844;28;20120;-79
2023/04/07 11:51:22;;;;;;;14.13;12.75;;;10.80;80.20;;;;;;4998322;28;20052;-79
2023/04/07 11:53:55;;;;;;;12.43;11.23;;;10.90;80.30;;;;;;5014774;28;20042;-78
2023/04/07 11:56:21;;;;;;;11.88;10.68;;;10.90;80.10;;;;;;4998500;28;20377;-78
2023/04/07 11:58:51;;;;;;;9.77;8.77;;;10.90;79.70;;;;;;5014426;28;20038;-78
2023/04/07 12:01:17;;;;;;;11.82;10.50;;;10.90;79.00;;;;;;4998134;28;20053;-78
2023/04/07 12:04:01;;;;;;;21.48;14.43;;;10.90;78.70;;;;;;4965765;28;20121;-78
2023/04/07 12:06:37;;;;;;;24.98;15.18;;;10.90;78.30;;;;;;5014018;28;20116;-78
2023/04/07 12:09:24;;;;;;;12.23;10.02;;;10.90;77.90;;;;;;4997972;28;20042;-78
2023/04/07 12:11:50;;;;;;;24.02;16.50;;;10.90;77.50;;;;;;4997908;28;20103;-78
2023/04/07 12:14:16;;;;;;;7.88;7.07;;;10.90;77.90;;;;;;4981451;28;20136;-79
2023/04/07 12:16:41;;;;;;;6.90;6.22;;;10.90;78.10;;;;;;4997678;28;20061;-79
2023/04/07 12:19:07;;;;;;;8.00;7.20;;;10.90;78.40;;;;;;5030493;28;20045;-79
2023/04/07 12:21:33;;;;;;;7.15;6.20;;;10.90;78.60;;;;;;5014184;28;20171;-78
2023/04/07 12:23:59;;;;;;;7.57;6.80;;;10.90;78.50;;;;;;5030428;28;20046;-78
2023/04/07 12:26:25;;;;;;;7.82;6.45;;;10.90;78.50;;;;;;5014179;28;20048;-78
2023/04/07 12:28:50;;;;;;;8.63;6.13;;;11.00;78.50;;;;;;5047342;28;20054;-78
2023/04/07 12:31:16;;;;;;;7.00;6.28;;;11.00;77.80;;;;;;5013904;28;20080;-78
2023/04/07 12:33:42;;;;;;;7.22;6.53;;;11.00;77.60;;;;;;5013317;28;20038;-78
2023/04/07 12:36:07;;;;;;;6.72;6.03;;;11.10;77.70;;;;;;4997319;28;20084;-78
2023/04/07 12:38:33;;;;;;;7.78;6.97;;;11.10;77.50;;;;;;4997457;28;20046;-78